Time;durP1;ratioP1;P1;durP2;ratioP2;P2;SDS_P1;SDS_P2;PMS_P1;PMS_P2;Temp;Humidity;BMP_temperature;BMP_pressure;BME280_temperature;BME280_humidity;BME280_pressure;Samples;Min_cycle;Max_cycle;Signal;HPM_P1;HPM_P2
2022/07/25 00:01:02;;;;;;;8.87;8.20;;;;;;;27.60;69.80;99177.31;5122108;27;20666;-65
2022/07/25 00:03:29;;;;;;;8.70;8.20;;;;;;;27.67;68.72;99174.03;5118351;27;20198;-65
2022/07/25 00:05:57;;;;;;;8.37;7.80;;;;;;;27.69;68.41;99172.88;5131597;27;20190;-65
2022/07/25 00:08:24;;;;;;;8.30;7.90;;;;;;;27.60;67.54;99168.59;5118979;27;20247;-65
2022/07/25 00:10:51;;;;;;;8.73;8.10;;;;;;;27.61;68.59;99186.03;5123876;27;20210;-65
2022/07/25 00:13:18;;;;;;;9.90;8.87;;;;;;;27.64;68.02;99177.81;5114506;27;20203;-65
2022/07/25 00:15:44;;;;;;;7.80;7.40;;;;;;;27.64;67.32;99185.72;5126392;27;20236;-66
2022/07/25 00:18:11;;;;;;;8.70;8.00;;;;;;;27.55;68.49;99189.31;5116809;27;20206;-65
2022/07/25 00:20:38;;;;;;;8.43;7.73;;;;;;;27.46;66.67;99187.63;5124378;27;20289;-65
2022/07/25 00:23:06;;;;;;;12.23;8.30;;;;;;;27.44;65.75;99202.75;5115501;27;20199;-65
2022/07/25 00:25:33;;;;;;;8.37;7.80;;;;;;;27.29;66.88;99197.22;5128510;27;20201;-65
2022/07/25 00:28:00;;;;;;;8.03;7.53;;;;;;;27.31;64.00;99199.69;5119553;27;20198;-65
2022/07/25 00:30:27;;;;;;;7.53;6.80;;;;;;;27.30;63.33;99208.59;5128385;27;20198;-65
2022/07/25 00:32:53;;;;;;;7.80;7.10;;;;;;;27.23;61.99;99213.66;5125769;27;20190;-66
2022/07/25 00:35:20;;;;;;;7.03;6.63;;;;;;;27.22;60.96;99217.25;5128901;27;20218;-65
2022/07/25 00:37:47;;;;;;;7.67;7.27;;;;;;;27.25;60.68;99218.75;5120639;27;20202;-65
2022/07/25 00:40:16;;;;;;;6.77;6.47;;;;;;;27.25;59.52;99224.00;5121889;27;20570;-65
2022/07/25 00:42:42;;;;;;;8.03;7.40;;;;;;;27.25;60.51;99221.38;5121028;27;20296;-64
2022/07/25 00:45:10;;;;;;;7.37;6.87;;;;;;;27.27;60.58;99224.72;5119357;28;20193;-65
2022/07/25 00:47:37;;;;;;;7.23;6.83;;;;;;;27.33;59.96;99224.06;5130364;27;20726;-65
2022/07/25 00:50:04;;;;;;;8.00;7.60;;;;;;;27.37;59.90;99230.66;5124833;27;20213;-65
2022/07/25 00:52:32;;;;;;;8.10;7.60;;;;;;;27.37;60.13;99230.66;5122893;27;20223;-65
2022/07/25 00:54:59;;;;;;;8.43;7.87;;;;;;;27.32;59.92;99232.94;5117298;28;20216;-65
2022/07/25 00:57:27;;;;;;;8.67;8.20;;;;;;;27.36;59.34;99239.56;5126888;28;20647;-64
2022/07/25 00:59:54;;;;;;;8.13;7.67;;;;;;;27.37;59.27;99242.00;5123862;28;20646;-65
2022/07/25 01:02:22;;;;;;;8.37;7.97;;;;;;;27.41;58.53;99247.78;5122692;28;20213;-65
2022/07/25 01:04:49;;;;;;;7.63;7.13;;;;;;;27.41;58.67;99239.91;5119767;28;20190;-65
2022/07/25 01:07:17;;;;;;;7.77;7.37;;;;;;;27.53;57.57;99252.66;5126455;28;20688;-65
2022/07/25 01:09:44;;;;;;;8.70;8.07;;;;;;;27.66;59.02;99240.91;5122580;27;20190;-66
2022/07/25 01:12:11;;;;;;;8.80;8.20;;;;;;;27.60;59.46;99237.06;5117452;28;20198;-65
2022/07/25 01:14:39;;;;;;;8.40;7.77;;;;;;;27.78;60.08;99253.63;5120100;28;20689;-65
2022/07/25 01:17:06;;;;;;;8.13;7.70;;;;;;;27.81;59.93;99249.84;5119037;28;20223;-65
2022/07/25 01:19:33;;;;;;;7.93;7.53;;;;;;;27.79;60.27;99247.34;5126975;27;20202;-65
2022/07/25 01:22:01;;;;;;;7.93;7.43;;;;;;;27.67;60.86;99245.97;5122046;28;20194;-65
2022/07/25 01:24:29;;;;;;;9.30;7.70;;;;;;;27.60;62.58;99253.69;5117779;27;20271;-65
2022/07/25 01:26:56;;;;;;;8.00;7.50;;;;;;;27.46;59.96;99254.31;5120589;27;20195;-65
2022/07/25 01:29:23;;;;;;;7.20;6.70;;;;;;;27.35;57.63;99244.00;5120228;27;20201;-65
2022/07/25 01:31:49;;;;;;;7.43;7.03;;;;;;;27.51;57.96;99261.72;5115922;27;20582;-65
2022/07/25 01:34:16;;;;;;;6.83;6.53;;;;;;;27.50;57.17;99254.78;5127784;27;20198;-65
2022/07/25 01:36:43;;;;;;;7.10;6.70;;;;;;;27.46;57.23;99250.84;5123786;27;20620;-65
2022/07/25 01:39:11;;;;;;;7.10;6.70;;;;;;;27.57;56.60;99258.44;5119616;27;20679;-65
2022/07/25 01:41:38;;;;;;;7.73;6.90;;;;;;;27.62;56.16;99250.91;5117885;27;20606;-65
2022/07/25 01:44:05;;;;;;;7.57;6.97;;;;;;;27.58;56.93;99244.31;5130811;27;20199;-65
2022/07/25 01:46:32;;;;;;;7.17;6.70;;;;;;;27.58;56.78;99239.03;5128152;27;20201;-66
2022/07/25 01:49:02;;;;;;;6.80;6.40;;;;;;;27.61;56.84;99233.44;5121309;27;20195;-65
2022/07/25 01:51:29;;;;;;;6.60;6.30;;;;;;;27.67;57.54;99230.19;5133548;27;20198;-65
2022/07/25 01:53:56;;;;;;;6.93;6.50;;;;;;;27.65;57.49;99224.25;5131650;27;20225;-65
2022/07/25 01:56:24;;;;;;;6.70;6.40;;;;;;;27.61;57.12;99229.00;5116371;27;20224;-65
2022/07/25 01:58:51;;;;;;;6.90;6.50;;;;;;;27.53;57.83;99223.69;5129625;27;20190;-65
2022/07/25 02:01:17;;;;;;;7.53;7.07;;;;;;;27.45;58.79;99220.22;5129911;27;20202;-65
2022/07/25 02:03:44;;;;;;;7.83;7.53;;;;;;;27.41;58.99;99216.19;5126812;27;20194;-65
2022/07/25 02:06:11;;;;;;;7.97;7.23;;;;;;;27.36;59.80;99208.78;5130564;27;20201;-65
2022/07/25 02:08:38;;;;;;;6.90;6.50;;;;;;;27.25;59.15;99195.06;5122917;27;20210;-65
2022/07/25 02:11:05;;;;;;;6.60;6.30;;;;;;;27.19;60.20;99195.69;5122667;27;20701;-65
2022/07/25 02:13:33;;;;;;;5.93;5.63;;;;;;;27.06;59.69;99186.41;5122390;27;20685;-66
2022/07/25 02:16:00;;;;;;;5.50;5.20;;;;;;;27.11;60.77;99178.88;5119648;27;20218;-65
2022/07/25 02:18:27;;;;;;;5.70;5.30;;;;;;;27.00;60.16;99176.53;5128175;27;20206;-65
2022/07/25 02:20:54;;;;;;;6.13;5.70;;;;;;;26.94;61.38;99177.16;5119839;27;20230;-65
2022/07/25 02:23:21;;;;;;;5.20;4.70;;;;;;;26.85;61.17;99164.91;5131843;27;20316;-65
2022/07/25 02:25:48;;;;;;;4.83;4.53;;;;;;;26.79;61.15;99160.22;5119910;27;20269;-64
2022/07/25 02:28:14;;;;;;;6.33;5.07;;;;;;;26.73;61.37;99158.22;5130271;27;20202;-65
2022/07/25 02:30:42;;;;;;;5.47;5.13;;;;;;;26.73;61.70;99152.97;5119403;27;20202;-65
2022/07/25 02:33:09;;;;;;;5.47;5.17;;;;;;;26.76;61.67;99157.91;5127568;27;20209;-65
2022/07/25 02:35:36;;;;;;;6.00;5.70;;;;;;;26.73;62.23;99165.28;5117406;27;20303;-65
2022/07/25 02:38:03;;;;;;;5.20;4.90;;;;;;;26.68;61.68;99163.13;5117918;27;20198;-65
2022/07/25 02:40:30;;;;;;;5.50;5.20;;;;;;;26.69;61.91;99166.59;5128735;27;20195;-65
2022/07/25 02:42:57;;;;;;;5.30;5.10;;;;;;;26.63;61.95;99152.22;5117521;27;20602;-65
2022/07/25 02:45:24;;;;;;;6.63;6.13;;;;;;;26.71;62.26;99159.38;5122799;27;20570;-65
2022/07/25 02:47:52;;;;;;;10.13;6.80;;;;;;;26.71;62.35;99160.19;5123692;27;20198;-64
2022/07/25 02:50:19;;;;;;;7.33;6.63;;;;;;;26.72;62.73;99171.53;5123159;27;20582;-65
2022/07/25 02:52:46;;;;;;;6.97;6.63;;;;;;;26.79;62.70;99173.38;5124455;27;20219;-64
2022/07/25 02:55:13;;;;;;;7.57;7.07;;;;;;;26.84;62.01;99176.44;5121438;27;20239;-65
2022/07/25 02:57:40;;;;;;;7.43;6.83;;;;;;;26.89;62.36;99184.66;5123641;27;20688;-65
2022/07/25 03:00:08;;;;;;;7.77;6.93;;;;;;;26.88;61.92;99177.75;5122522;27;20678;-65
2022/07/25 03:02:35;;;;;;;7.43;7.03;;;;;;;26.83;62.36;99185.28;5123930;27;20654;-64
2022/07/25 03:05:06;;;;;;;7.33;6.93;;;;;;;26.82;62.06;99183.63;5125413;27;20665;-65
2022/07/25 03:07:33;;;;;;;6.93;6.43;;;;;;;26.83;62.59;99185.28;5126823;27;20692;-65
2022/07/25 03:09:59;;;;;;;6.87;6.57;;;;;;;26.78;62.89;99181.44;5128928;27;20203;-64
2022/07/25 03:12:26;;;;;;;6.73;6.37;;;;;;;26.80;63.29;99185.56;5119670;27;20200;-64
2022/07/25 03:14:53;;;;;;;6.63;6.33;;;;;;;26.77;63.81;99185.03;5126830;27;20672;-65
2022/07/25 03:17:20;;;;;;;7.00;6.57;;;;;;;26.68;63.84;99189.44;5118013;27;20581;-64
2022/07/25 03:19:47;;;;;;;6.27;5.77;;;;;;;26.67;63.72;99182.50;5122810;27;20197;-65
2022/07/25 03:22:15;;;;;;;7.30;7.00;;;;;;;26.72;63.74;99182.84;5117328;27;20198;-65
2022/07/25 03:24:42;;;;;;;6.67;6.37;;;;;;;26.69;64.21;99187.63;5124941;27;20202;-65
2022/07/25 03:27:09;;;;;;;7.17;6.77;;;;;;;26.74;64.11;99191.44;5123290;27;20302;-64
2022/07/25 03:29:36;;;;;;;7.30;6.90;;;;;;;26.72;64.38;99193.38;5117177;27;20272;-65
2022/07/25 03:32:03;;;;;;;7.13;6.73;;;;;;;26.72;64.86;99190.75;5123208;27;20264;-65
2022/07/25 03:34:30;;;;;;;9.00;8.20;;;;;;;26.65;65.01;99197.63;5120721;27;20214;-65
2022/07/25 03:36:59;;;;;;;8.80;8.37;;;;;;;26.45;65.77;99181.19;5122471;27;20270;-65
2022/07/25 03:39:27;;;;;;;9.03;8.17;;;;;;;26.40;65.98;99185.25;5115065;27;20205;-65
2022/07/25 03:41:55;;;;;;;8.27;7.77;;;;;;;26.34;66.28;99205.06;5122466;27;20191;-65
2022/07/25 03:44:22;;;;;;;8.17;7.67;;;;;;;26.25;67.31;99205.16;5129995;27;20205;-64
2022/07/25 03:46:49;;;;;;;8.20;7.83;;;;;;;26.20;67.22;99202.16;5130655;27;20186;-65
2022/07/25 03:49:16;;;;;;;9.47;8.77;;;;;;;26.14;68.21;99203.53;5118861;27;20200;-65
2022/07/25 03:51:43;;;;;;;9.43;8.70;;;;;;;26.10;68.13;99205.66;5132209;27;20198;-65
2022/07/25 03:54:12;;;;;;;9.70;8.60;;;;;;;26.14;68.90;99202.72;5115972;27;20218;-65
2022/07/25 03:56:42;;;;;;;8.70;8.10;;;;;;;25.99;69.29;99200.59;5120046;27;20213;-65
2022/07/25 03:59:10;;;;;;;8.33;7.93;;;;;;;26.04;69.20;99208.06;5130694;27;20194;-65
2022/07/25 04:01:37;;;;;;;9.77;9.00;;;;;;;26.00;69.54;99214.56;5121392;27;20666;-66
2022/07/25 04:04:04;;;;;;;9.47;8.97;;;;;;;25.98;69.64;99209.47;5118878;27;20194;-66
2022/07/25 04:06:31;;;;;;;8.87;8.37;;;;;;;25.89;69.85;99215.59;5123461;27;20227;-65
2022/07/25 04:08:58;;;;;;;9.13;8.60;;;;;;;25.80;69.41;99190.22;5129356;27;20194;-64
2022/07/25 04:11:26;;;;;;;9.30;8.43;;;;;;;25.92;69.93;99207.41;5115353;27;20198;-65
2022/07/25 04:13:55;;;;;;;8.90;8.30;;;;;;;25.94;69.92;99212.53;5125806;27;20225;-65
2022/07/25 04:16:22;;;;;;;8.93;8.30;;;;;;;25.96;69.10;99200.91;5122973;27;20224;-65
2022/07/25 04:18:49;;;;;;;9.07;8.57;;;;;;;26.02;69.21;99202.94;5126210;27;20570;-65
2022/07/25 04:21:16;;;;;;;9.67;8.77;;;;;;;26.07;69.16;99203.31;5123779;27;20201;-65
2022/07/25 04:23:43;;;;;;;9.80;8.90;;;;;;;26.02;69.10;99192.44;5120743;27;20202;-65
2022/07/25 04:26:10;;;;;;;9.63;8.63;;;;;;;26.11;68.61;99198.56;5113308;27;20195;-65
2022/07/25 04:28:37;;;;;;;8.87;8.17;;;;;;;26.15;68.08;99209.63;5118388;27;20202;-65
2022/07/25 04:31:05;;;;;;;8.60;7.77;;;;;;;26.19;68.02;99200.50;5122348;27;20741;-65
2022/07/25 04:33:32;;;;;;;8.40;8.00;;;;;;;26.20;67.46;99207.41;5123603;27;20198;-65
2022/07/25 04:35:59;;;;;;;8.33;7.87;;;;;;;26.23;67.93;99212.38;5116189;27;20214;-65
2022/07/25 04:38:25;;;;;;;10.40;9.13;;;;;;;26.24;68.42;99209.59;5120716;27;20202;-66
2022/07/25 04:40:52;;;;;;;8.97;8.27;;;;;;;26.24;67.60;99206.13;5124348;27;20195;-65
2022/07/25 04:43:20;;;;;;;12.33;9.80;;;;;;;26.26;68.23;99217.31;5122958;27;20202;-64
2022/07/25 04:45:47;;;;;;;9.47;8.77;;;;;;;26.24;67.79;99212.22;5127845;27;20194;-65
2022/07/25 04:48:16;;;;;;;8.93;8.23;;;;;;;26.29;67.77;99209.97;5119971;27;20678;-65
2022/07/25 04:50:42;;;;;;;7.83;7.43;;;;;;;26.27;68.30;99208.47;5124309;27;20678;-65
2022/07/25 04:53:09;;;;;;;9.07;8.63;;;;;;;26.33;68.53;99218.38;5124528;27;20229;-64
2022/07/25 04:55:37;;;;;;;8.87;8.37;;;;;;;26.31;68.81;99226.41;5127288;28;20229;-65
2022/07/25 04:58:05;;;;;;;13.53;8.80;;;;;;;26.30;69.12;99221.31;5125807;28;20197;-65
2022/07/25 05:00:32;;;;;;;8.70;8.23;;;;;;;26.36;69.81;99223.34;5128856;27;20190;-65
2022/07/25 05:02:59;;;;;;;9.03;8.40;;;;;;;26.37;69.53;99219.72;5134541;27;20189;-65
2022/07/25 05:05:27;;;;;;;9.73;9.03;;;;;;;26.40;69.76;99216.78;5132641;27;20202;-64
2022/07/25 05:07:57;;;;;;;10.23;8.67;;;;;;;26.48;69.43;99212.44;5128478;27;20202;-65
2022/07/25 05:10:23;;;;;;;9.47;8.87;;;;;;;26.51;68.82;99222.66;5129769;27;20199;-65
2022/07/25 05:12:50;;;;;;;8.67;8.13;;;;;;;26.54;69.85;99219.72;5129127;27;20199;-66
2022/07/25 05:15:17;;;;;;;9.53;8.93;;;;;;;26.52;69.64;99224.31;5134013;27;20600;-65
2022/07/25 05:17:44;;;;;;;10.93;8.73;;;;;;;26.59;70.47;99224.53;5128854;27;20217;-65
2022/07/25 05:20:12;;;;;;;10.37;9.30;;;;;;;26.60;70.22;99229.63;5135249;27;20201;-65
2022/07/25 05:22:40;;;;;;;9.87;9.20;;;;;;;26.62;70.08;99225.03;5134350;27;20193;-65
2022/07/25 05:25:09;;;;;;;9.97;9.10;;;;;;;26.62;70.35;99219.78;5127815;27;20322;-65
2022/07/25 05:27:36;;;;;;;9.57;8.90;;;;;;;26.66;70.80;99219.50;5126658;27;20195;-65
2022/07/25 05:30:03;;;;;;;9.83;9.13;;;;;;;26.72;70.86;99232.03;5126842;27;20578;-65
2022/07/25 05:32:30;;;;;;;9.80;9.10;;;;;;;26.72;70.03;99227.56;5125500;27;20631;-65
2022/07/25 05:34:57;;;;;;;9.63;8.97;;;;;;;26.76;70.36;99231.56;5129897;27;20206;-66
2022/07/25 05:37:24;;;;;;;9.07;8.57;;;;;;;26.83;70.89;99227.38;5132083;27;20693;-65
2022/07/25 05:39:52;;;;;;;11.07;9.00;;;;;;;26.85;69.83;99225.41;5135308;27;20578;-65
2022/07/25 05:42:19;;;;;;;9.30;8.77;;;;;;;26.86;70.07;99221.81;5130846;27;20586;-65
2022/07/25 05:44:45;;;;;;;8.77;8.27;;;;;;;26.90;70.46;99223.16;5129725;27;20209;-65
2022/07/25 05:47:13;;;;;;;9.37;8.60;;;;;;;26.98;70.70;99220.56;5129993;27;20689;-66
2022/07/25 05:49:40;;;;;;;9.13;8.27;;;;;;;27.04;69.85;99225.19;5128279;27;20205;-65
2022/07/25 05:52:07;;;;;;;18.53;9.87;;;;;;;27.09;70.79;99230.84;5125801;27;20586;-65
2022/07/25 05:54:34;;;;;;;9.77;8.80;;;;;;;27.16;69.95;99230.22;5129231;27;20202;-65
2022/07/25 05:57:02;;;;;;;12.83;8.50;;;;;;;27.21;69.65;99220.03;5125605;27;20944;-64
2022/07/25 05:59:29;;;;;;;8.80;8.10;;;;;;;27.28;69.34;99221.06;5129940;27;20210;-64
2022/07/25 06:01:57;;;;;;;8.73;8.10;;;;;;;27.38;69.70;99206.00;5128892;27;20205;-65
2022/07/25 06:04:24;;;;;;;8.43;7.83;;;;;;;27.45;69.99;99207.03;5128993;27;20213;-64
2022/07/25 06:06:51;;;;;;;9.30;8.73;;;;;;;27.50;69.27;99210.84;5134462;27;20209;-65
2022/07/25 06:09:18;;;;;;;8.60;8.13;;;;;;;27.59;70.32;99203.81;5131263;27;20206;-65
2022/07/25 06:11:45;;;;;;;9.70;8.80;;;;;;;27.69;69.28;99214.22;5127099;27;20217;-65
2022/07/25 06:14:13;;;;;;;10.00;9.03;;;;;;;27.76;69.48;99205.50;5122256;27;20198;-67
2022/07/25 06:16:40;;;;;;;11.50;8.97;;;;;;;27.83;68.30;99210.97;5122269;27;20780;-65
2022/07/25 06:19:07;;;;;;;9.40;8.60;;;;;;;27.89;68.52;99216.41;5124465;27;20213;-64
2022/07/25 06:21:34;;;;;;;10.10;9.13;;;;;;;27.95;68.60;99215.78;5130177;27;20198;-70
2022/07/25 06:24:01;;;;;;;9.40;8.80;;;;;;;28.04;68.68;99212.19;5124736;27;20209;-67
2022/07/25 06:26:27;;;;;;;9.87;9.23;;;;;;;28.17;68.21;99218.84;5121051;27;20743;-68
2022/07/25 06:28:54;;;;;;;8.97;8.27;;;;;;;28.30;68.05;99213.91;5125165;27;20202;-66
2022/07/25 06:31:23;;;;;;;24.40;11.53;;;;;;;28.41;67.90;99210.94;5125419;27;20218;-67
2022/07/25 06:33:49;;;;;;;9.07;8.33;;;;;;;28.47;66.97;99220.81;5129854;27;20696;-67
2022/07/25 06:36:16;;;;;;;9.20;8.70;;;;;;;28.55;66.02;99218.22;5122212;27;20230;-66
2022/07/25 06:38:43;;;;;;;9.57;8.60;;;;;;;28.54;65.95;99209.47;5126700;27;20283;-67
2022/07/25 06:41:14;;;;;;;9.90;9.10;;;;;;;28.72;66.11;99214.63;5125074;27;20206;-67
2022/07/25 06:43:42;;;;;;;10.17;9.43;;;;;;;28.90;65.37;99215.25;5128491;27;20323;-67
2022/07/25 06:46:09;;;;;;;14.83;9.10;;;;;;;29.12;64.09;99213.72;5121521;27;20194;-67
2022/07/25 06:48:37;;;;;;;9.00;8.30;;;;;;;29.35;63.84;99211.19;5123082;27;20665;-68
2022/07/25 06:51:05;;;;;;;9.37;8.47;;;;;;;29.53;62.98;99209.97;5127107;27;20216;-67
2022/07/25 06:53:32;;;;;;;8.43;7.60;;;;;;;29.72;62.12;99216.69;5125673;27;20685;-66
2022/07/25 06:55:58;;;;;;;8.52;8.13;;;;;;;29.81;61.34;99207.72;5127697;27;20696;-67
2022/07/25 06:58:25;;;;;;;7.60;7.10;;;;;;;29.90;60.66;99206.69;5127331;27;20205;-66
2022/07/25 07:00:52;;;;;;;8.80;8.30;;;;;;;30.09;60.09;99211.53;5126432;27;20281;-64
2022/07/25 07:03:19;;;;;;;11.25;10.35;;;;;;;30.18;58.15;99215.78;5127864;27;20206;-66
2022/07/25 07:05:47;;;;;;;8.90;8.07;;;;;;;30.27;59.17;99213.09;5123548;27;20564;-66
2022/07/25 07:08:14;;;;;;;9.43;7.80;;;;;;;30.51;57.33;99215.56;5124564;27;20605;-65
2022/07/25 07:10:41;;;;;;;7.63;7.13;;;;;;;30.63;56.98;99214.16;5121221;27;20701;-65
2022/07/25 07:13:09;;;;;;;7.78;7.38;;;;;;;30.80;56.80;99210.34;5128484;27;20213;-67
2022/07/25 07:15:37;;;;;;;7.70;7.30;;;;;;;30.72;55.97;99215.72;5127269;27;20606;-67
2022/07/25 07:18:05;;;;;;;7.68;7.35;;;;;;;30.76;55.95;99214.34;5124143;27;20606;-65
2022/07/25 07:20:32;;;;;;;8.60;8.10;;;;;;;30.65;56.36;99212.16;5123905;27;20194;-68
2022/07/25 07:23:00;;;;;;;8.55;7.63;;;;;;;30.57;56.67;99212.19;5125305;27;20216;-67
2022/07/25 07:25:27;;;;;;;7.93;7.35;;;;;;;30.45;56.80;99205.69;5128335;27;20205;-66
2022/07/25 07:27:54;;;;;;;8.18;7.68;;;;;;;30.40;57.14;99208.91;5131712;27;20674;-67
2022/07/25 07:30:24;;;;;;;7.68;7.25;;;;;;;30.44;56.66;99196.09;5132595;27;20653;-67
2022/07/25 07:32:51;;;;;;;8.32;7.63;;;;;;;30.57;57.08;99201.63;5128018;27;20198;-67
2022/07/25 07:35:18;;;;;;;7.57;7.22;;;;;;;30.71;57.40;99200.84;5130598;27;20206;-67
2022/07/25 07:37:46;;;;;;;8.55;8.05;;;;;;;30.79;57.59;99202.59;5126720;27;20216;-66
2022/07/25 07:40:15;;;;;;;8.77;8.27;;;;;;;30.88;56.37;99202.34;5124598;27;20251;-66
2022/07/25 07:42:44;;;;;;;15.00;7.93;;;;;;;30.88;55.88;99197.06;5130156;27;20198;-67
2022/07/25 07:45:13;;;;;;;8.50;7.82;;;;;;;31.16;57.01;99194.63;5129969;27;20285;-67
2022/07/25 07:47:40;;;;;;;8.05;7.43;;;;;;;31.44;57.59;99186.88;5131392;27;20221;-67
2022/07/25 07:50:10;;;;;;;7.97;7.50;;;;;;;31.60;53.85;99189.34;5125314;27;20198;-67
2022/07/25 07:52:37;;;;;;;20.60;7.68;;;;;;;31.85;53.70;99188.00;5126745;27;20221;-68
2022/07/25 07:57:50;;;;;;;8.70;8.20;;;;;;;32.61;52.20;99197.97;5123087;27;20307;-67
2022/07/25 08:00:18;;;;;;;7.75;7.15;;;;;;;32.88;49.63;99199.00;5122033;27;20202;-67
2022/07/25 08:02:47;;;;;;;7.85;7.45;;;;;;;33.07;50.31;99195.66;5129212;27;20202;-67
2022/07/25 08:05:20;;;;;;;7.90;7.40;;;;;;;33.18;48.39;99191.69;5127437;27;20217;-67
2022/07/25 08:07:47;;;;;;;7.80;7.00;;;;;;;33.28;50.21;99195.59;5132550;27;20202;-66
2022/07/25 08:10:13;;;;;;;7.75;7.35;;;;;;;33.37;47.18;99192.78;5128786;27;20206;-67
2022/07/25 08:12:41;;;;;;;7.18;6.78;;;;;;;33.62;47.01;99196.59;5129728;27;20194;-67
2022/07/25 08:15:11;;;;;;;8.25;7.10;;;;;;;33.84;46.66;99195.47;5126051;27;20289;-67
2022/07/25 08:17:38;;;;;;;7.57;6.85;;;;;;;34.08;45.70;99204.75;5127596;27;20202;-68
2022/07/25 08:20:07;;;;;;;8.07;7.47;;;;;;;34.45;44.92;99195.38;5123168;27;20205;-68
2022/07/25 08:22:38;;;;;;;7.03;6.72;;;;;;;34.74;44.63;99198.50;5125141;27;20728;-68
2022/07/25 08:25:07;;;;;;;7.85;7.22;;;;;;;34.76;44.34;99200.97;5123726;27;20189;-68
2022/07/25 08:27:33;;;;;;;6.75;6.20;;;;;;;34.80;45.34;99203.00;5124325;27;20194;-68
2022/07/25 08:30:00;;;;;;;6.07;5.78;;;;;;;35.00;41.56;99202.13;5119111;27;20206;-68
2022/07/25 08:32:29;;;;;;;7.55;7.15;;;;;;;35.24;41.40;99205.00;5121393;27;20300;-68
2022/07/25 08:34:56;;;;;;;7.13;6.35;;;;;;;35.59;40.61;99192.19;5131396;27;20209;-68
2022/07/25 08:37:23;;;;;;;6.63;6.32;;;;;;;35.60;41.63;99185.84;5120220;27;20716;-69
2022/07/25 08:39:50;;;;;;;7.00;6.40;;;;;;;35.64;41.97;99194.25;5127391;27;20199;-68
2022/07/25 08:42:18;;;;;;;6.80;6.40;;;;;;;35.88;41.05;99196.16;5123766;27;20609;-67
2022/07/25 08:44:50;;;;;;;6.45;6.05;;;;;;;35.90;41.13;99196.75;5125998;27;20198;-68
2022/07/25 08:47:18;;;;;;;6.88;6.57;;;;;;;36.03;40.32;99199.34;5123131;27;20659;-68
2022/07/25 08:49:46;;;;;;;6.95;6.20;;;;;;;36.00;39.01;99199.78;5126093;27;20205;-68
2022/07/25 08:52:13;;;;;;;6.18;5.88;;;;;;;35.93;39.07;99198.19;5119129;27;20578;-68
2022/07/25 08:54:41;;;;;;;6.55;6.05;;;;;;;35.95;37.61;99204.94;5123573;27;20235;-68
2022/07/25 08:57:07;;;;;;;6.30;5.55;;;;;;;36.18;37.04;99205.25;5122789;28;20213;-68
2022/07/25 08:59:34;;;;;;;6.00;5.80;;;;;;;36.53;37.49;99200.28;5126128;28;20206;-69
2022/07/25 09:02:05;;;;;;;5.95;5.63;;;;;;;36.76;36.45;99189.00;5131123;28;20198;-69
2022/07/25 09:04:33;;;;;;;6.20;5.90;;;;;;;37.10;36.23;99196.50;5124601;27;20726;-69
2022/07/25 09:07:03;;;;;;;7.00;6.57;;;;;;;37.28;35.92;99187.69;5129317;28;20198;-69
2022/07/25 09:09:31;;;;;;;6.35;6.05;;;;;;;37.22;35.84;99184.00;5127047;28;20216;-69
2022/07/25 09:11:58;;;;;;;6.78;6.40;;;;;;;37.13;37.79;99185.34;5128510;28;20199;-69
2022/07/25 09:14:25;;;;;;;6.35;5.85;;;;;;;37.30;35.97;99186.41;5130300;27;20205;-69
2022/07/25 09:16:52;;;;;;;6.55;6.13;;;;;;;37.42;35.05;99183.78;5120557;27;20222;-69
2022/07/25 09:19:21;;;;;;;6.40;5.80;;;;;;;37.61;35.85;99174.72;5122097;27;20202;-70
2022/07/25 09:21:59;;;;;;;5.85;5.63;;;;;;;37.61;35.09;99173.94;5127728;27;20213;-69
2022/07/25 09:24:27;;;;;;;6.53;6.13;;;;;;;37.79;34.35;99176.56;5128468;28;20197;-69
2022/07/25 09:26:56;;;;;;;6.05;5.65;;;;;;;37.43;34.08;99173.91;5127483;28;20190;-69
2022/07/25 09:29:26;;;;;;;5.45;5.05;;;;;;;37.03;35.01;99174.34;5127922;28;20609;-69
2022/07/25 09:31:54;;;;;;;5.50;5.30;;;;;;;36.83;38.51;99176.41;5126588;27;20197;-69
2022/07/25 09:34:33;;;;;;;5.80;5.60;;;;;;;36.94;35.61;99175.66;5124235;28;20194;-69
2022/07/25 09:37:01;;;;;;;6.40;6.00;;;;;;;36.69;34.47;99177.56;5129196;28;20286;-70
2022/07/25 09:39:38;;;;;;;5.78;5.55;;;;;;;36.60;37.06;99173.53;5128247;27;20202;-69
2022/07/25 09:42:18;;;;;;;6.43;5.90;;;;;;;36.56;35.57;99178.50;5126383;28;20198;-70
2022/07/25 09:44:57;;;;;;;8.32;5.80;;;;;;;36.50;35.03;99152.63;5127319;27;20205;-69
2022/07/25 09:47:24;;;;;;;6.15;5.72;;;;;;;36.83;34.32;99173.72;5128465;27;20202;-70
2022/07/25 09:49:51;;;;;;;5.30;5.10;;;;;;;37.00;36.50;99166.78;5125906;27;20663;-69
2022/07/25 09:52:19;;;;;;;5.95;5.65;;;;;;;36.51;35.52;99145.44;5125299;27;20205;-69
2022/07/25 09:54:47;;;;;;;5.18;4.97;;;;;;;36.83;37.33;99165.72;5124429;27;20620;-68
2022/07/25 09:57:14;;;;;;;5.70;5.40;;;;;;;37.05;36.34;99161.59;5125918;27;20694;-69
2022/07/25 09:59:41;;;;;;;6.00;5.78;;;;;;;36.90;35.39;99162.97;5122778;27;20206;-68
2022/07/25 10:02:11;;;;;;;5.68;5.47;;;;;;;36.95;35.78;99160.44;5123362;27;20615;-69
2022/07/25 10:04:47;;;;;;;6.13;5.63;;;;;;;37.17;35.84;99153.66;5135008;27;20591;-69
2022/07/25 10:07:16;;;;;;;5.97;5.68;;;;;;;37.28;34.04;99161.75;5128564;27;20197;-68
2022/07/25 10:09:45;;;;;;;5.72;5.53;;;;;;;37.31;33.55;99157.81;5133395;27;20193;-70
2022/07/25 10:12:19;;;;;;;8.20;5.90;;;;;;;37.05;34.51;99160.78;5134100;27;20202;-69
2022/07/25 10:15:08;;;;;;;6.43;5.93;;;;;;;37.00;33.78;99152.63;5129506;27;20578;-69
2022/07/25 10:17:37;;;;;;;5.63;5.22;;;;;;;37.18;35.02;99148.09;5133067;27;20214;-69
2022/07/25 10:20:06;;;;;;;5.63;5.43;;;;;;;37.18;34.57;99150.75;5131401;27;20693;-69
2022/07/25 10:22:43;;;;;;;6.03;5.72;;;;;;;37.03;34.38;99136.16;5133035;27;20221;-68
2022/07/25 10:25:13;;;;;;;8.15;5.30;;;;;;;36.95;34.27;99139.88;5125331;27;20194;-69
2022/07/25 10:27:47;;;;;;;6.32;6.03;;;;;;;37.03;34.38;99133.47;5134472;27;20198;-68
2022/07/25 10:30:22;;;;;;;6.55;6.25;;;;;;;36.63;34.55;99127.69;5130036;27;20197;-68
2022/07/25 10:32:57;;;;;;;6.10;5.80;;;;;;;36.40;35.69;99124.78;5123128;27;20201;-68
2022/07/25 10:35:25;;;;;;;6.40;6.10;;;;;;;36.58;36.02;99133.66;5129011;27;20244;-68
2022/07/25 10:37:53;;;;;;;6.68;6.05;;;;;;;36.60;34.85;99134.28;5122396;27;20254;-68
2022/07/25 10:40:33;;;;;;;6.47;6.07;;;;;;;36.55;36.47;99122.59;5120031;27;20198;-68
2022/07/25 10:43:08;;;;;;;6.10;5.80;;;;;;;36.61;34.60;99121.75;5123500;27;20186;-68
2022/07/25 10:45:40;;;;;;;5.88;5.47;;;;;;;36.76;35.47;99114.19;5122812;27;20688;-69
2022/07/25 10:48:08;;;;;;;5.80;5.50;;;;;;;36.95;34.38;99113.16;5125194;27;20198;-69
2022/07/25 10:50:35;;;;;;;6.00;5.60;;;;;;;37.20;34.97;99118.44;5117772;27;20659;-68
2022/07/25 10:53:06;;;;;;;6.60;6.07;;;;;;;37.05;34.66;99110.81;5116429;27;20218;-68
2022/07/25 10:55:36;;;;;;;7.00;6.43;;;;;;;36.99;34.36;99111.69;5132671;27;20661;-68
2022/07/25 10:58:06;;;;;;;6.15;5.68;;;;;;;37.00;35.42;99109.88;5119069;27;20206;-68
2022/07/25 11:00:33;;;;;;;6.53;6.22;;;;;;;37.26;35.16;99113.00;5122097;27;20194;-69
2022/07/25 11:03:01;;;;;;;5.97;5.55;;;;;;;37.03;33.58;99107.53;5115105;27;20687;-69
2022/07/25 11:05:29;;;;;;;6.63;6.32;;;;;;;37.01;33.97;99082.91;5122828;27;20199;-69
2022/07/25 11:07:56;;;;;;;7.75;6.63;;;;;;;37.26;34.18;99096.16;5126780;27;20265;-69
2022/07/25 11:10:27;;;;;;;5.80;5.60;;;;;;;37.22;34.44;99109.16;5128185;27;20559;-68
2022/07/25 11:13:10;;;;;;;6.32;6.00;;;;;;;37.12;33.42;99097.38;5124419;27;20556;-69
2022/07/25 11:15:38;;;;;;;6.82;6.32;;;;;;;36.88;34.06;99100.91;5124489;27;20202;-68
2022/07/25 11:18:05;;;;;;;6.70;6.40;;;;;;;36.70;33.82;99083.84;5124223;27;20701;-69
2022/07/25 11:20:32;;;;;;;6.47;6.18;;;;;;;36.84;33.85;99095.19;5123521;27;20243;-69
2022/07/25 11:22:59;;;;;;;6.55;6.25;;;;;;;36.68;33.39;99085.06;5123385;27;20190;-68
2022/07/25 11:25:26;;;;;;;6.10;5.88;;;;;;;36.20;34.77;99068.88;5130096;27;20195;-69
2022/07/25 11:27:57;;;;;;;7.53;6.22;;;;;;;36.59;36.30;99071.22;5119796;27;20276;-69
2022/07/25 11:30:26;;;;;;;6.60;6.30;;;;;;;37.02;35.88;99065.81;5131754;27;20222;-69
2022/07/25 11:32:56;;;;;;;5.80;5.32;;;;;;;37.22;33.78;99070.94;5132075;27;20209;-68
2022/07/25 11:35:26;;;;;;;6.18;5.88;;;;;;;36.87;34.08;99078.69;5131600;27;20570;-69
2022/07/25 11:37:53;;;;;;;6.50;6.10;;;;;;;37.00;33.97;99057.19;5116618;27;20210;-70